Fedhaven, Florida
Current Conditions -  °F | °C
As of 7:55 AM on Thursday 23 Oct 2014 (Local Time) from KBOW Reporting Station
Scattered Clouds Scattered Clouds  
Wind Chill: 63°   Ceiling: Unl
Heat Index: 63°   Visibility: 10mi
Dew Point: 57°   Wind: 6mph
Humidity: 82%   Direction: NA
Pressure: 29.99"   Gusts: NA
Location:  27.86°N, 81.41°W
Report Text: KBOW 231155Z VRB05KT 10SM SCT200 17/14 A2999
Loading
Personal Weather Stations






























Interactive Weather Map New forecast layout! Learn more

10-Day Weather Forecast

Advertisements
Track Severe Weather on mobile